Time;durP1;ratioP1;P1;durP2;ratioP2;P2;SDS_P1;SDS_P2;PMS_P1;PMS_P2;Temp;Humidity;BMP_temperature;BMP_pressure;BME280_temperature;BME280_humidity;BME280_pressure;Samples;Min_cycle;Max_cycle;Signal;HPM_P1;HPM_P2
2022/12/26 00:01:32;;;;;;;;;2.67;2.67;;;;;-146.50;100.00;59256.41;5091233;27;45455;-75
2022/12/26 00:03:57;;;;;;;;;1.33;1.33;;;;;-146.50;100.00;59256.41;5078383;27;45359;-75
2022/12/26 00:06:27;;;;;;;;;2.33;2.33;;;;;-146.50;100.00;59256.41;5091739;27;45307;-74
2022/12/26 00:08:53;;;;;;;;;1.67;1.33;;;;;-146.50;100.00;59256.41;5086117;27;45412;-75
2022/12/26 00:11:20;;;;;;;;;2.00;2.00;;;;;-146.50;100.00;59256.41;5083837;27;45422;-74
2022/12/26 00:13:45;;;;;;;;;1.00;1.00;;;;;-146.50;100.00;59256.41;5092988;27;46233;-75
2022/12/26 00:16:12;;;;;;;;;1.00;1.00;;;;;-146.50;100.00;59256.41;5068268;27;45558;-75
2022/12/26 00:18:38;;;;;;;;;1.33;1.00;;;;;-146.50;100.00;59256.41;5082491;27;45471;-75
2022/12/26 00:21:05;;;;;;;;;2.00;2.00;;;;;-146.50;100.00;59256.41;5086423;27;45618;-74
2022/12/26 00:23:32;;;;;;;;;2.75;0.00;;;;;-146.50;100.00;59256.41;5079898;27;45674;-75
2022/12/26 00:26:06;;;;;;;;;1.50;1.50;;;;;-146.50;100.00;59256.41;5082678;27;45410;-75
2022/12/26 00:28:32;;;;;;;;;1.75;1.75;;;;;-146.50;100.00;59256.41;5086661;27;45505;-75
2022/12/26 00:30:58;;;;;;;;;1.67;1.67;;;;;-146.50;100.00;59256.41;5087448;27;45334;-74
2022/12/26 00:33:23;;;;;;;;;1.00;1.00;;;;;-146.50;100.00;59256.41;5071630;27;45617;-75
2022/12/26 00:35:49;;;;;;;;;3.00;3.00;;;;;-146.50;100.00;59256.41;5072332;27;45403;-74
2022/12/26 00:38:15;;;;;;;;;5.00;2.50;;;;;-146.50;100.00;59256.41;5093442;27;45432;-75
2022/12/26 00:40:42;;;;;;;;;3.67;2.33;;;;;-146.50;100.00;59256.41;5084380;27;45413;-75
2022/12/26 00:43:08;;;;;;;;;4.00;1.67;;;;;-146.50;100.00;59256.41;5085672;27;47133;-75
2022/12/26 00:45:34;;;;;;;;;4.33;3.33;;;;;-146.50;100.00;59256.41;5081663;27;45384;-76
2022/12/26 00:47:59;;;;;;;;;3.00;3.00;;;;;-146.50;100.00;59256.41;5093155;27;45273;-75
2022/12/26 00:50:24;;;;;;;;;8.00;5.25;;;;;-146.50;100.00;59256.41;5081653;27;45302;-75
2022/12/26 00:52:50;;;;;;;;;3.75;3.75;;;;;-146.50;100.00;59256.41;5093232;27;45467;-74
2022/12/26 00:55:15;;;;;;;;;6.75;3.75;;;;;-146.50;100.00;59256.41;5065489;28;45339;-75
2022/12/26 00:57:41;;;;;;;;;5.50;4.50;;;;;-146.50;100.00;59256.41;5092439;27;45503;-75
2022/12/26 01:00:07;;;;;;;;;9.00;5.50;;;;;-146.50;100.00;59256.41;5079239;27;45389;-74
2022/12/26 01:02:38;;;;;;;;;4.67;4.67;;;;;-146.50;100.00;59256.41;5089123;27;45558;-75
2022/12/26 01:05:09;;;;;;;;;3.00;3.00;;;;;-146.50;100.00;59256.41;5086057;27;45393;-75
2022/12/26 01:07:37;;;;;;;;;6.75;4.00;;;;;-146.50;100.00;59256.41;5080699;27;45340;-75
2022/12/26 01:10:07;;;;;;;;;5.00;4.00;;;;;-146.50;100.00;59256.41;5092315;27;45398;-75
2022/12/26 01:12:32;;;;;;;;;5.00;5.00;;;;;-146.50;100.00;59256.41;5081590;27;47177;-74
2022/12/26 01:14:58;;;;;;;;;6.25;3.25;;;;;-146.50;100.00;59256.41;5085586;27;45593;-73
2022/12/26 01:17:26;;;;;;;;;4.00;3.75;;;;;-146.50;100.00;59256.41;5087372;27;45701;-73
2022/12/26 01:19:52;;;;;;;;;7.75;5.00;;;;;-146.50;100.00;59256.41;5080421;27;45489;-74
2022/12/26 01:22:18;;;;;;;;;5.25;5.00;;;;;-146.50;100.00;59256.41;5085931;27;46206;-74
2022/12/26 01:24:44;;;;;;;;;5.00;4.25;;;;;-146.50;100.00;59256.41;5081486;27;45774;-74
2022/12/26 01:27:09;;;;;;;;;4.00;3.00;;;;;-146.50;100.00;59256.41;5083936;27;45345;-73
2022/12/26 01:29:35;;;;;;;;;4.25;3.75;;;;;-146.50;100.00;59256.41;5088805;27;45338;-74
2022/12/26 01:32:00;;;;;;;;;4.00;4.00;;;;;-146.50;100.00;59256.41;5078605;27;46040;-75
2022/12/26 01:34:26;;;;;;;;;0.00;0.00;;;;;-146.50;100.00;59256.41;5084462;27;45575;-74
2022/12/26 01:36:52;;;;;;;;;4.25;3.25;;;;;-146.50;100.00;59256.41;5110069;27;45749;-74
2022/12/26 01:39:18;;;;;;;;;4.00;3.00;;;;;-146.50;100.00;59256.41;5092625;27;45327;-75
2022/12/26 01:41:43;;;;;;;;;6.00;4.25;;;;;-146.50;100.00;59256.41;5076047;27;45610;-75
2022/12/26 01:44:45;;;;;;;;;3.75;3.75;;;;;-146.50;100.00;59256.41;5078027;27;45470;-75
2022/12/26 01:47:12;;;;;;;;;6.00;4.75;;;;;-146.50;100.00;59256.41;5073504;27;45334;-73
2022/12/26 01:49:42;;;;;;;;;4.25;4.25;;;;;-146.50;100.00;59256.41;5075071;27;45651;-74
2022/12/26 01:52:13;;;;;;;;;6.00;2.67;;;;;-146.50;100.00;59256.41;5077289;27;47838;-74
2022/12/26 01:54:44;;;;;;;;;2.75;2.00;;;;;-146.50;100.00;59256.41;5072690;28;45456;-71
2022/12/26 01:57:17;;;;;;;;;2.00;2.00;;;;;-146.50;100.00;59256.41;5071994;28;45387;-75
2022/12/26 01:59:45;;;;;;;;;4.00;2.75;;;;;-146.50;100.00;59256.41;5074356;27;45338;-75
2022/12/26 02:02:11;;;;;;;;;2.67;2.67;;;;;-146.50;100.00;59256.41;5071862;28;46295;-75
2022/12/26 02:07:27;;;;;;;;;2.50;2.50;;;;;-146.50;100.00;59256.41;5074477;28;45359;-73
2022/12/26 02:09:52;;;;;;;;;3.00;3.00;;;;;-146.50;100.00;59256.41;5074412;28;45319;-72
2022/12/26 02:12:29;;;;;;;;;3.25;2.00;;;;;-146.50;100.00;59256.41;5073883;27;46099;-73
2022/12/26 02:14:57;;;;;;;;;2.00;1.00;;;;;-146.50;100.00;59256.41;5070967;28;45477;-73
2022/12/26 02:17:23;;;;;;;;;2.75;2.00;;;;;-146.50;100.00;59256.41;5074155;27;45519;-73
2022/12/26 02:20:13;;;;;;;;;4.00;2.00;;;;;-146.50;100.00;59256.41;5074391;28;45470;-73
2022/12/26 02:22:57;;;;;;;;;4.00;1.67;;;;;-146.50;100.00;59256.41;5072757;28;46143;-73
2022/12/26 02:25:28;;;;;;;;;1.00;1.00;;;;;-146.50;100.00;59256.41;5105751;27;45399;-73
2022/12/26 02:27:56;;;;;;;;;3.00;3.00;;;;;-146.50;100.00;59256.41;5071841;28;45416;-73
2022/12/26 02:30:21;;;;;;;;;3.75;2.00;;;;;-146.50;100.00;59256.41;5074247;27;45769;-73
2022/12/26 02:33:30;;;;;;;;;2.25;1.75;;;;;-146.50;100.00;59256.41;5073636;28;47570;-73
2022/12/26 02:36:16;;;;;;;;;1.00;1.00;;;;;-146.50;100.00;59256.41;5052774;28;45335;-74
2022/12/26 02:39:03;;;;;;;;;0.75;0.75;;;;;-146.50;100.00;59256.41;5054447;28;45457;-74
2022/12/26 02:41:37;;;;;;;;;0.67;0.67;;;;;-146.50;100.00;59256.41;5054254;28;45449;-74
2022/12/26 02:47:23;;;;;;;;;2.75;1.00;;;;;-146.50;100.00;59256.41;5054006;28;45440;-74
2022/12/26 03:14:28;;;;;;;;;2.00;1.00;;;;;-146.50;100.00;59256.41;4953752;28;45401;-75
2022/12/26 03:17:19;;;;;;;;;1.00;0.67;;;;;-146.50;100.00;59256.41;4971978;28;45428;-75
2022/12/26 03:20:06;;;;;;;;;1.00;1.00;;;;;-146.50;100.00;59256.41;4955324;28;46324;-75
2022/12/26 03:22:43;;;;;;;;;0.00;0.00;;;;;-146.50;100.00;59256.41;4955251;28;45378;-75
2022/12/26 03:28:22;;;;;;;;;0.00;0.00;;;;;-146.50;100.00;59256.41;4963962;28;45559;-75
2022/12/26 03:30:50;;;;;;;;;1.00;0.00;;;;;-146.50;100.00;59256.41;5014501;28;45686;-75
2022/12/26 03:36:20;;;;;;;;;0.00;0.00;;;;;-146.50;100.00;59256.41;5014558;28;45390;-75
2022/12/26 03:39:06;;;;;;;;;0.00;0.00;;;;;-146.50;100.00;59256.41;5014015;28;45418;-75
2022/12/26 04:19:49;;;;;;;;;1.00;0.00;;;;;-146.50;100.00;59256.41;5073905;28;45312;-75
2022/12/26 04:45:05;;;;;;;;;0.00;0.00;;;;;-146.50;100.00;59256.41;5074405;28;45453;-75
2022/12/26 04:47:31;;;;;;;;;1.00;0.00;;;;;-146.50;100.00;59256.41;5075191;28;45343;-75
2022/12/26 04:50:11;;;;;;;;;0.33;0.00;;;;;-146.50;100.00;59256.41;5074839;27;46591;-75
2022/12/26 04:52:57;;;;;;;;;0.00;0.00;;;;;-146.50;100.00;59256.41;5074441;27;45739;-75
2022/12/26 04:55:24;;;;;;;;;0.00;0.00;;;;;-146.50;100.00;59256.41;5071993;28;45754;-75
2022/12/26 04:57:49;;;;;;;;;0.00;0.00;;;;;-146.50;100.00;59256.41;5074656;27;45355;-75
2022/12/26 05:00:15;;;;;;;;;0.00;0.00;;;;;-146.50;100.00;59256.41;5074501;27;45908;-75
2022/12/26 05:11:08;;;;;;;;;1.33;0.67;;;;;-146.50;100.00;59256.41;5031385;28;45745;-75
2022/12/26 05:13:34;;;;;;;;;0.00;0.00;;;;;-146.50;100.00;59256.41;5031299;28;45403;-74
2022/12/26 05:29:39;;;;;;;;;0.00;0.00;;;;;-146.50;100.00;59256.41;5031176;28;45552;-73
2022/12/26 05:32:05;;;;;;;;;0.00;0.00;;;;;-146.50;100.00;59256.41;5016656;28;46028;-73
2022/12/26 05:34:30;;;;;;;;;1.00;1.00;;;;;-146.50;100.00;59256.41;5030612;28;45725;-73
2022/12/26 05:36:58;;;;;;;;;0.00;0.00;;;;;-146.50;100.00;59256.41;5014312;28;45459;-74
2022/12/26 05:39:23;;;;;;;;;0.00;0.00;;;;;-146.50;100.00;59256.41;5029031;28;45483;-74
2022/12/26 05:41:49;;;;;;;;;1.67;1.67;;;;;-146.50;100.00;59256.41;5031118;28;45471;-74
2022/12/26 05:44:14;;;;;;;;;0.00;0.00;;;;;-146.50;100.00;59256.41;5030847;28;45453;-73
2022/12/26 05:46:43;;;;;;;;;0.00;0.00;;;;;-146.50;100.00;59256.41;5031201;28;45459;-74
2022/12/26 05:49:08;;;;;;;;;0.33;0.33;;;;;-146.50;100.00;59256.41;5065919;28;45314;-73
2022/12/26 05:51:35;;;;;;;;;1.00;1.00;;;;;-146.50;100.00;59256.41;5073741;28;45380;-73
2022/12/26 05:54:01;;;;;;;;;1.33;0.00;;;;;-146.50;100.00;59256.41;5073714;27;45337;-73
2022/12/26 05:56:26;;;;;;;;;0.00;0.00;;;;;-146.50;100.00;59256.41;5073393;27;45378;-74
2022/12/26 05:58:54;;;;;;;;;0.00;0.00;;;;;-146.50;100.00;59256.41;5074212;28;45408;-73
2022/12/26 06:01:20;;;;;;;;;0.00;0.00;;;;;-146.50;100.00;59256.41;5073553;28;45395;-73
2022/12/26 06:03:51;;;;;;;;;0.00;0.00;;;;;-146.50;100.00;59256.41;5073607;28;46442;-73
2022/12/26 06:06:18;;;;;;;;;0.00;0.00;;;;;-146.50;100.00;59256.41;5073754;27;45325;-73
2022/12/26 06:08:48;;;;;;;;;0.00;0.00;;;;;-146.50;100.00;59256.41;5073380;27;45599;-74
2022/12/26 06:11:14;;;;;;;;;1.00;1.00;;;;;-146.50;100.00;59256.41;5071036;27;46917;-73
2022/12/26 06:13:40;;;;;;;;;0.33;0.33;;;;;-146.50;100.00;59256.41;5072561;27;45351;-74
2022/12/26 06:16:10;;;;;;;;;0.00;0.00;;;;;-146.50;100.00;59256.41;5073230;28;45908;-73
2022/12/26 06:18:36;;;;;;;;;0.00;0.00;;;;;-146.50;100.00;59256.41;5072371;28;46503;-74
2022/12/26 06:21:06;;;;;;;;;3.00;1.00;;;;;-146.50;100.00;59256.41;5069514;28;45484;-74
2022/12/26 06:23:32;;;;;;;;;0.67;0.00;;;;;-146.50;100.00;59256.41;5073201;27;45455;-73
2022/12/26 06:25:58;;;;;;;;;0.00;0.00;;;;;-146.50;100.00;59256.41;5072451;28;45496;-73
2022/12/26 06:28:23;;;;;;;;;0.00;0.00;;;;;-146.50;100.00;59256.41;5072725;28;45386;-73
2022/12/26 06:30:50;;;;;;;;;1.00;1.00;;;;;-146.50;100.00;59256.41;5054623;28;47563;-73
2022/12/26 06:33:16;;;;;;;;;1.00;0.00;;;;;-146.50;100.00;59256.41;5071499;28;45394;-74
2022/12/26 06:35:41;;;;;;;;;0.00;0.00;;;;;-146.50;100.00;59256.41;5070787;28;45408;-73
2022/12/26 06:38:07;;;;;;;;;0.00;0.00;;;;;-146.50;100.00;59256.41;5073008;28;45667;-73
2022/12/26 06:40:32;;;;;;;;;1.00;0.00;;;;;-146.50;100.00;59256.41;5072179;27;47029;-73
2022/12/26 06:42:57;;;;;;;;;0.00;0.00;;;;;-146.50;100.00;59256.41;5073323;27;45384;-74
2022/12/26 06:45:23;;;;;;;;;0.00;0.00;;;;;-146.50;100.00;59256.41;5072880;28;45376;-73
2022/12/26 06:47:48;;;;;;;;;0.33;0.33;;;;;-146.50;100.00;59256.41;5073147;27;45509;-73
2022/12/26 06:50:13;;;;;;;;;0.00;0.00;;;;;-146.50;100.00;59256.41;5075054;28;47054;-74
2022/12/26 06:52:39;;;;;;;;;0.00;0.00;;;;;-146.50;100.00;59256.41;5075713;28;45407;-73
2022/12/26 06:55:04;;;;;;;;;0.00;0.00;;;;;-146.50;100.00;59256.41;5077766;27;45736;-73
2022/12/26 06:57:30;;;;;;;;;1.00;1.00;;;;;-146.50;100.00;59256.41;5077640;28;45298;-74
2022/12/26 06:59:55;;;;;;;;;1.00;1.00;;;;;-146.50;100.00;59256.41;5077939;28;45570;-74
2022/12/26 07:02:21;;;;;;;;;0.00;0.00;;;;;-146.50;100.00;59256.41;5076006;28;45409;-74
2022/12/26 07:04:46;;;;;;;;;2.33;1.00;;;;;-146.50;100.00;59256.41;5078281;28;45658;-74
2022/12/26 07:07:11;;;;;;;;;1.67;0.00;;;;;-146.50;100.00;59256.41;5078339;27;45512;-73
2022/12/26 07:09:37;;;;;;;;;1.00;1.00;;;;;-146.50;100.00;59256.41;5078166;28;47282;-74
2022/12/26 07:12:02;;;;;;;;;1.00;1.00;;;;;-146.50;100.00;59256.41;5078872;28;45325;-74
2022/12/26 07:14:28;;;;;;;;;0.00;0.00;;;;;-146.50;100.00;59256.41;5077627;27;45284;-74
2022/12/26 07:16:53;;;;;;;;;1.00;1.00;;;;;-146.50;100.00;59256.41;5075873;28;45302;-73
2022/12/26 07:19:18;;;;;;;;;1.00;0.00;;;;;-146.50;100.00;59256.41;5075997;27;46129;-74
2022/12/26 07:21:45;;;;;;;;;1.67;1.00;;;;;-146.50;100.00;59256.41;5075960;27;45303;-74
2022/12/26 07:24:19;;;;;;;;;1.00;1.00;;;;;-146.50;100.00;59256.41;5076598;28;45402;-74
2022/12/26 07:26:47;;;;;;;;;1.00;0.00;;;;;-146.50;100.00;59256.41;5074514;28;45421;-74
2022/12/26 07:29:13;;;;;;;;;0.00;0.00;;;;;-146.50;100.00;59256.41;5076315;27;45460;-74
2022/12/26 07:31:39;;;;;;;;;1.33;0.00;;;;;-146.50;100.00;59256.41;5075940;27;45455;-74
2022/12/26 07:34:04;;;;;;;;;1.00;0.00;;;;;-146.50;100.00;59256.41;5076709;27;45411;-74
2022/12/26 07:36:30;;;;;;;;;0.33;0.33;;;;;-146.50;100.00;59256.41;5076905;28;45332;-74
2022/12/26 07:38:55;;;;;;;;;1.00;1.00;;;;;-146.50;100.00;59256.41;5078831;27;45963;-74
2022/12/26 07:44:05;;;;;;;;;2.00;1.00;;;;;-146.50;100.00;59256.41;5077034;28;45368;-74
2022/12/26 07:46:31;;;;;;;;;0.00;0.00;;;;;-146.50;100.00;59256.41;5076178;28;45421;-74
2022/12/26 07:48:57;;;;;;;;;0.33;0.33;;;;;-146.50;100.00;59256.41;5076725;28;46230;-74
2022/12/26 07:51:22;;;;;;;;;3.00;1.67;;;;;-146.50;100.00;59256.41;5075496;28;45592;-74
2022/12/26 07:53:48;;;;;;;;;0.33;0.33;;;;;-146.50;100.00;59256.41;5076210;27;45285;-74
2022/12/26 07:56:13;;;;;;;;;1.67;0.00;;;;;-146.50;100.00;59256.41;5076674;28;45343;-74
2022/12/26 07:58:39;;;;;;;;;2.00;1.00;;;;;-146.50;100.00;59256.41;5076354;28;46089;-74
2022/12/26 08:01:05;;;;;;;;;1.00;0.00;;;;;-146.50;100.00;59256.41;5074530;28;45317;-74
2022/12/26 08:03:31;;;;;;;;;1.00;1.00;;;;;-146.50;100.00;59256.41;5073653;28;45423;-74
2022/12/26 08:05:57;;;;;;;;;1.33;0.00;;;;;-146.50;100.00;59256.41;5075652;28;45430;-74
2022/12/26 08:08:23;;;;;;;;;1.00;1.00;;;;;-146.50;100.00;59256.41;5073359;28;48525;-74
2022/12/26 08:10:48;;;;;;;;;2.00;2.00;;;;;-146.50;100.00;59256.41;5075569;28;45481;-74
2022/12/26 08:13:14;;;;;;;;;2.00;2.00;;;;;-146.50;100.00;59256.41;5055180;28;45550;-74
2022/12/26 08:15:39;;;;;;;;;1.00;1.00;;;;;-146.50;100.00;59256.41;5076029;27;45554;-74
2022/12/26 08:18:06;;;;;;;;;1.67;1.67;;;;;-146.50;100.00;59256.41;5074422;28;46940;-74
2022/12/26 08:20:31;;;;;;;;;0.33;0.33;;;;;-146.50;100.00;59256.41;5075649;27;45471;-74
2022/12/26 08:22:57;;;;;;;;;1.00;1.00;;;;;-146.50;100.00;59256.41;5075594;28;45471;-73
2022/12/26 08:25:23;;;;;;;;;1.00;1.00;;;;;-146.50;100.00;59256.41;5073523;28;45411;-74
2022/12/26 08:27:48;;;;;;;;;2.00;0.00;;;;;-146.50;100.00;59256.41;5075122;27;45491;-73
2022/12/26 08:30:13;;;;;;;;;1.00;1.00;;;;;-146.50;100.00;59256.41;5074310;28;45348;-73
2022/12/26 08:32:39;;;;;;;;;1.67;1.00;;;;;-146.50;100.00;59256.41;5073923;28;45443;-74
2022/12/26 08:35:05;;;;;;;;;1.00;0.00;;;;;-146.50;100.00;59256.41;5075588;28;45267;-73
2022/12/26 08:37:30;;;;;;;;;1.67;0.33;;;;;-146.50;100.00;59256.41;5073175;27;45369;-74
2022/12/26 08:39:55;;;;;;;;;1.00;1.00;;;;;-146.50;100.00;59256.41;5075620;27;45438;-73
2022/12/26 08:42:21;;;;;;;;;0.00;0.00;;;;;-146.50;100.00;59256.41;5074651;28;45746;-74
2022/12/26 08:44:47;;;;;;;;;1.00;1.00;;;;;-146.50;100.00;59256.41;5075740;28;45550;-74
2022/12/26 08:47:12;;;;;;;;;1.00;1.00;;;;;-146.50;100.00;59256.41;5075857;27;45424;-74
2022/12/26 08:49:38;;;;;;;;;0.67;0.67;;;;;-146.50;100.00;59256.41;5074172;28;46034;-73
2022/12/26 08:52:03;;;;;;;;;1.33;1.33;;;;;-146.50;100.00;59256.41;5075876;27;45361;-74
2022/12/26 08:54:29;;;;;;;;;1.00;1.00;;;;;-146.50;100.00;59256.41;5074431;28;45490;-73
2022/12/26 08:56:55;;;;;;;;;2.00;2.00;;;;;-146.50;100.00;59256.41;5075520;27;45981;-74
2022/12/26 08:59:20;;;;;;;;;1.67;1.67;;;;;-146.50;100.00;59256.41;5074882;28;45360;-73
2022/12/26 09:01:46;;;;;;;;;2.00;1.00;;;;;-146.50;100.00;59256.41;5075636;27;45427;-74
2022/12/26 09:04:11;;;;;;;;;2.00;2.00;;;;;-146.50;100.00;59256.41;5075713;27;45420;-74
2022/12/26 09:06:38;;;;;;;;;2.67;2.00;;;;;-146.50;100.00;59256.41;5075453;28;46429;-75
2022/12/26 09:09:05;;;;;;;;;3.33;2.00;;;;;-146.50;100.00;59256.41;5075395;28;45351;-74
2022/12/26 09:11:31;;;;;;;;;2.33;1.00;;;;;-146.50;100.00;59256.41;5075005;27;45360;-74
2022/12/26 09:14:00;;;;;;;;;1.33;0.00;;;;;-146.50;100.00;59256.41;5074585;28;45604;-74
2022/12/26 09:16:45;;;;;;;;;1.67;1.67;;;;;-146.50;100.00;59256.41;5075292;28;46147;-72
2022/12/26 09:19:12;;;;;;;;;2.00;1.00;;;;;-146.50;100.00;59256.41;5073545;28;45498;-73
2022/12/26 09:21:38;;;;;;;;;2.67;1.00;;;;;-146.50;100.00;59256.41;5074953;27;45558;-73
2022/12/26 09:24:07;;;;;;;;;1.00;1.00;;;;;-146.50;100.00;59256.41;5075224;27;45460;-74
2022/12/26 09:26:33;;;;;;;;;1.00;1.00;;;;;-146.50;100.00;59256.41;5074849;28;46457;-73
2022/12/26 09:28:58;;;;;;;;;1.00;1.00;;;;;-146.50;100.00;59256.41;5074993;28;45475;-74
2022/12/26 09:31:26;;;;;;;;;2.00;1.00;;;;;-146.50;100.00;59256.41;5075236;27;45396;-75
2022/12/26 09:33:55;;;;;;;;;1.00;1.00;;;;;-146.50;100.00;59256.41;5072327;27;45493;-75
2022/12/26 09:36:27;;;;;;;;;0.00;0.00;;;;;-146.50;100.00;59256.41;5073023;28;45279;-74
2022/12/26 09:38:54;;;;;;;;;1.33;1.00;;;;;-146.50;100.00;59256.41;5073802;27;45570;-72
2022/12/26 09:41:31;;;;;;;;;2.67;1.00;;;;;-146.50;100.00;59256.41;5074698;28;45307;-75
2022/12/26 09:44:06;;;;;;;;;2.00;1.00;;;;;-146.50;100.00;59256.41;5107571;27;45274;-72
2022/12/26 09:46:39;;;;;;;;;1.00;1.00;;;;;-146.50;100.00;59256.41;5072964;28;46290;-74
2022/12/26 09:49:13;;;;;;;;;2.33;1.00;;;;;-146.50;100.00;59256.41;5071479;28;45342;-73
2022/12/26 09:51:42;;;;;;;;;1.67;1.67;;;;;-146.50;100.00;59256.41;5074815;28;45378;-74
2022/12/26 09:54:17;;;;;;;;;3.33;3.33;;;;;-146.50;100.00;59256.41;5075148;27;45529;-73
2022/12/26 09:56:45;;;;;;;;;1.00;1.00;;;;;-146.50;100.00;59256.41;5071814;28;46576;-74
2022/12/26 09:59:18;;;;;;;;;1.00;1.00;;;;;-146.50;100.00;59256.41;5074580;27;45520;-74
2022/12/26 10:01:47;;;;;;;;;3.00;1.00;;;;;-146.50;100.00;59256.41;5072113;28;45396;-74
2022/12/26 10:04:23;;;;;;;;;1.00;1.00;;;;;-146.50;100.00;59256.41;5074335;27;45341;-74
2022/12/26 10:07:00;;;;;;;;;3.33;3.33;;;;;-146.50;100.00;59256.41;5073123;28;45341;-74
2022/12/26 10:09:51;;;;;;;;;1.00;1.00;;;;;-146.50;100.00;59256.41;5074745;27;45246;-74
2022/12/26 10:12:41;;;;;;;;;1.00;1.00;;;;;-146.50;100.00;59256.41;5073658;28;45461;-73
2022/12/26 10:15:19;;;;;;;;;5.00;1.67;;;;;-146.50;100.00;59256.41;5074879;28;45475;-74
2022/12/26 10:18:00;;;;;;;;;2.67;1.33;;;;;-146.50;100.00;59256.41;5072650;28;46399;-72
2022/12/26 10:20:35;;;;;;;;;2.00;1.00;;;;;-146.50;100.00;59256.41;5074197;28;45264;-73
2022/12/26 10:23:30;;;;;;;;;1.00;1.00;;;;;-146.50;100.00;59256.41;5076601;27;45452;-73
2022/12/26 10:26:07;;;;;;;;;2.00;2.00;;;;;-146.50;100.00;59256.41;5078691;28;45356;-73
2022/12/26 10:28:41;;;;;;;;;0.00;0.00;;;;;-146.50;100.00;59256.41;5076909;28;45887;-74
2022/12/26 10:31:16;;;;;;;;;2.00;1.00;;;;;-146.50;100.00;59256.41;5075707;28;45293;-73
2022/12/26 10:33:55;;;;;;;;;1.33;1.00;;;;;-146.50;100.00;59256.41;5076222;28;45386;-73
2022/12/26 10:36:30;;;;;;;;;0.00;0.00;;;;;-146.50;100.00;59256.41;5077250;27;45497;-73
2022/12/26 10:38:58;;;;;;;;;0.00;0.00;;;;;-146.50;100.00;59256.41;5077470;27;46417;-74
2022/12/26 10:41:34;;;;;;;;;1.00;1.00;;;;;-146.50;100.00;59256.41;5075171;28;45290;-73
2022/12/26 10:44:00;;;;;;;;;2.00;1.00;;;;;-146.50;100.00;59256.41;5077573;28;45333;-73
2022/12/26 10:46:52;;;;;;;;;2.00;1.33;;;;;-146.50;100.00;59256.41;5076026;28;45553;-74
2022/12/26 10:49:21;;;;;;;;;1.00;1.00;;;;;-146.50;100.00;59256.41;5053795;28;45421;-74
2022/12/26 10:51:48;;;;;;;;;1.00;1.00;;;;;-146.50;100.00;59256.41;5052763;28;45444;-74
2022/12/26 10:54:17;;;;;;;;;1.33;1.00;;;;;-146.50;100.00;59256.41;5054662;28;45428;-75
2022/12/26 10:56:44;;;;;;;;;1.00;1.00;;;;;-146.50;100.00;59256.41;5055089;28;45518;-74
2022/12/26 10:59:16;;;;;;;;;2.00;1.00;;;;;-146.50;100.00;59256.41;5054735;28;46606;-74
2022/12/26 11:01:46;;;;;;;;;1.33;0.67;;;;;-146.50;100.00;59256.41;5053964;28;45442;-74
2022/12/26 11:04:23;;;;;;;;;1.00;0.00;;;;;-146.50;100.00;59256.41;5054750;28;45432;-74
2022/12/26 11:06:53;;;;;;;;;0.67;0.00;;;;;-146.50;100.00;59256.41;5054827;28;45367;-74
2022/12/26 11:09:32;;;;;;;;;0.67;0.67;;;;;-146.50;100.00;59256.41;5054252;28;45756;-74
2022/12/26 11:11:57;;;;;;;;;0.67;0.67;;;;;-146.50;100.00;59256.41;5054445;28;45543;-72
2022/12/26 11:14:40;;;;;;;;;2.00;0.33;;;;;-146.50;100.00;59256.41;5034541;28;45541;-74
2022/12/26 11:17:23;;;;;;;;;1.33;1.00;;;;;-146.50;100.00;59256.41;5054752;28;45507;-74
2022/12/26 11:19:48;;;;;;;;;0.00;0.00;;;;;-146.50;100.00;59256.41;5052726;28;46509;-74
2022/12/26 11:22:21;;;;;;;;;1.00;1.00;;;;;-146.50;100.00;59256.41;5037316;28;45393;-73
2022/12/26 11:25:10;;;;;;;;;1.00;1.00;;;;;-146.50;100.00;59256.41;5052106;28;45342;-73
2022/12/26 11:27:40;;;;;;;;;0.00;0.00;;;;;-146.50;100.00;59256.41;5076479;28;45528;-73
2022/12/26 11:30:29;;;;;;;;;1.00;0.00;;;;;-146.50;100.00;59256.41;5074873;28;45632;-72
2022/12/26 11:33:41;;;;;;;;;0.00;0.00;;;;;-146.50;100.00;59256.41;5075013;28;45333;-73
2022/12/26 11:36:09;;;;;;;;;0.00;0.00;;;;;-146.50;100.00;59256.41;5074654;28;45330;-73
2022/12/26 11:38:46;;;;;;;;;1.33;0.00;;;;;-146.50;100.00;59256.41;5076237;28;45394;-73
2022/12/26 11:41:32;;;;;;;;;1.00;1.00;;;;;-146.50;100.00;59256.41;5075048;28;46488;-74
2022/12/26 11:44:09;;;;;;;;;1.00;1.00;;;;;-146.50;100.00;59256.41;5108745;27;45346;-73
2022/12/26 11:46:55;;;;;;;;;1.00;0.00;;;;;-146.50;100.00;59256.41;5075372;28;45495;-73
2022/12/26 11:49:39;;;;;;;;;0.00;0.00;;;;;-146.50;100.00;59256.41;5075646;28;45524;-74
2022/12/26 11:52:32;;;;;;;;;0.00;0.00;;;;;-146.50;100.00;59256.41;5074206;28;46115;-74
2022/12/26 11:54:57;;;;;;;;;0.00;0.00;;;;;-146.50;100.00;59256.41;5075647;28;45282;-74
2022/12/26 11:57:31;;;;;;;;;0.00;0.00;;;;;-146.50;100.00;59256.41;5076644;27;45271;-76
2022/12/26 12:00:18;;;;;;;;;0.00;0.00;;;;;-146.50;100.00;59256.41;5075138;28;45363;-75
2022/12/26 12:02:44;;;;;;;;;1.00;1.00;;;;;-146.50;100.00;59256.41;5073171;28;47623;-74
2022/12/26 12:05:37;;;;;;;;;0.67;0.00;;;;;-146.50;100.00;59256.41;5075798;27;45529;-74
2022/12/26 12:08:15;;;;;;;;;1.00;1.00;;;;;-146.50;100.00;59256.41;5075647;28;45691;-73
2022/12/26 12:11:15;;;;;;;;;2.33;1.00;;;;;-146.50;100.00;59256.41;5076230;28;45479;-77
2022/12/26 12:14:07;;;;;;;;;2.33;1.00;;;;;-146.50;100.00;59256.41;5075064;28;46367;-76
2022/12/26 12:17:02;;;;;;;;;0.33;0.33;;;;;-146.50;100.00;59256.41;5074612;28;45576;-74
2022/12/26 12:19:38;;;;;;;;;2.50;1.00;;;;;-146.50;100.00;59256.41;5074009;28;45373;-76
2022/12/26 12:22:26;;;;;;;;;0.67;0.67;;;;;-146.50;100.00;59256.41;5073353;28;45290;-75
2022/12/26 12:25:19;;;;;;;;;1.00;1.00;;;;;-146.50;100.00;59256.41;5071365;27;45444;-75
2022/12/26 12:28:09;;;;;;;;;1.00;1.00;;;;;-146.50;100.00;59256.41;5069082;27;45479;-75
2022/12/26 12:30:49;;;;;;;;;0.00;0.00;;;;;-146.50;100.00;59256.41;5073970;27;45876;-74
2022/12/26 12:33:26;;;;;;;;;1.50;0.50;;;;;-146.50;100.00;59256.41;5073982;27;45548;-75
2022/12/26 12:36:00;;;;;;;;;0.25;0.25;;;;;-146.50;100.00;59256.41;5075406;27;45308;-75
2022/12/26 12:38:48;;;;;;;;;1.00;1.00;;;;;-146.50;100.00;59256.41;5074480;27;45378;-76
2022/12/26 12:41:31;;;;;;;;;2.00;0.00;;;;;-146.50;100.00;59256.41;5075889;27;45675;-75
2022/12/26 12:44:05;;;;;;;;;0.00;0.00;;;;;-146.50;100.00;59256.41;5074851;27;45389;-75
2022/12/26 12:46:30;;;;;;;;;1.00;0.00;;;;;-146.50;100.00;59256.41;5075044;27;45482;-74
2022/12/26 12:49:17;;;;;;;;;0.00;0.00;;;;;-146.50;100.00;59256.41;5078398;27;45404;-74
2022/12/26 12:51:58;;;;;;;;;0.50;0.50;;;;;-146.50;100.00;59256.41;5077055;27;45397;-75
2022/12/26 12:54:43;;;;;;;;;0.00;0.00;;;;;-146.50;100.00;59256.41;5070355;27;45369;-75
2022/12/26 12:57:11;;;;;;;;;1.00;1.00;;;;;-146.50;100.00;59256.41;5074956;27;45436;-74
2022/12/26 13:00:20;;;;;;;;;2.75;1.00;;;;;-146.50;100.00;59256.41;5077289;27;45334;-74
2022/12/26 13:03:16;;;;;;;;;2.00;1.00;;;;;-146.50;100.00;59256.41;5075950;27;45506;-75
2022/12/26 13:06:16;;;;;;;;;2.00;1.00;;;;;-146.50;100.00;59256.41;5076371;27;45522;-75
2022/12/26 13:08:56;;;;;;;;;1.33;1.33;;;;;-146.50;100.00;59256.41;5078427;27;45410;-75
2022/12/26 13:11:21;;;;;;;;;3.33;0.67;;;;;-146.50;100.00;59256.41;5076354;27;45515;-75
2022/12/26 13:13:56;;;;;;;;;1.00;1.00;;;;;-146.50;100.00;59256.41;5076703;27;45368;-75
2022/12/26 13:16:26;;;;;;;;;1.33;1.00;;;;;-146.50;100.00;59256.41;5076115;27;45678;-73
2022/12/26 13:18:57;;;;;;;;;1.00;1.00;;;;;-146.50;100.00;59256.41;5072858;27;46798;-73
2022/12/26 13:21:24;;;;;;;;;1.00;1.00;;;;;-146.50;100.00;59256.41;5076609;27;45399;-73
2022/12/26 13:24:22;;;;;;;;;2.00;0.00;;;;;-146.50;100.00;59256.41;5075897;27;45393;-72
2022/12/26 13:27:10;;;;;;;;;3.00;1.25;;;;;-146.50;100.00;59256.41;5080512;27;45461;-73
2022/12/26 13:29:43;;;;;;;;;2.00;0.33;;;;;-146.50;100.00;59256.41;5074638;27;47193;-74
2022/12/26 13:32:24;;;;;;;;;0.67;0.33;;;;;-146.50;100.00;59256.41;5091177;27;45476;-72